sensor_id;sensor_type;location;lat;lon;timestamp;P1;durP1;ratioP1;P2;durP2;ratioP2
23288;SDS011;11813;50.834;4.280;2023-02-28T00:00:05;10.80;;;6.17;;
23288;SDS011;11813;50.834;4.280;2023-02-28T00:02:39;13.87;;;6.83;;
23288;SDS011;11813;50.834;4.280;2023-02-28T00:05:06;11.00;;;6.53;;
23288;SDS011;11813;50.834;4.280;2023-02-28T00:07:33;15.47;;;6.90;;
23288;SDS011;11813;50.834;4.280;2023-02-28T00:09:59;13.10;;;5.73;;
23288;SDS011;11813;50.834;4.280;2023-02-28T00:12:25;9.87;;;6.23;;
23288;SDS011;11813;50.834;4.280;2023-02-28T00:14:51;10.87;;;6.90;;
23288;SDS011;11813;50.834;4.280;2023-02-28T00:17:17;9.20;;;5.93;;
23288;SDS011;11813;50.834;4.280;2023-02-28T00:19:45;13.47;;;6.20;;
23288;SDS011;11813;50.834;4.280;2023-02-28T00:22:13;11.87;;;7.03;;
23288;SDS011;11813;50.834;4.280;2023-02-28T00:24:39;11.47;;;6.83;;
23288;SDS011;11813;50.834;4.280;2023-02-28T00:27:05;13.37;;;6.73;;
23288;SDS011;11813;50.834;4.280;2023-02-28T00:29:30;10.30;;;6.33;;
23288;SDS011;11813;50.834;4.280;2023-02-28T00:31:56;9.97;;;6.57;;
23288;SDS011;11813;50.834;4.280;2023-02-28T00:34:21;10.67;;;6.67;;
23288;SDS011;11813;50.834;4.280;2023-02-28T00:36:47;12.17;;;6.60;;
23288;SDS011;11813;50.834;4.280;2023-02-28T00:39:16;10.33;;;7.07;;
23288;SDS011;11813;50.834;4.280;2023-02-28T00:41:42;11.73;;;6.63;;
23288;SDS011;11813;50.834;4.280;2023-02-28T00:44:07;12.73;;;7.37;;
23288;SDS011;11813;50.834;4.280;2023-02-28T00:46:33;11.30;;;6.60;;
23288;SDS011;11813;50.834;4.280;2023-02-28T00:48:58;11.17;;;6.47;;
23288;SDS011;11813;50.834;4.280;2023-02-28T00:51:24;11.70;;;7.43;;
23288;SDS011;11813;50.834;4.280;2023-02-28T00:53:49;9.47;;;6.57;;
23288;SDS011;11813;50.834;4.280;2023-02-28T00:56:15;9.60;;;7.17;;
23288;SDS011;11813;50.834;4.280;2023-02-28T00:58:41;9.87;;;6.57;;
23288;SDS011;11813;50.834;4.280;2023-02-28T01:01:06;12.23;;;6.90;;
23288;SDS011;11813;50.834;4.280;2023-02-28T01:03:32;11.70;;;6.23;;
23288;SDS011;11813;50.834;4.280;2023-02-28T01:05:57;16.03;;;7.37;;
23288;SDS011;11813;50.834;4.280;2023-02-28T01:08:23;11.23;;;6.90;;
23288;SDS011;11813;50.834;4.280;2023-02-28T01:10:49;12.00;;;6.80;;
23288;SDS011;11813;50.834;4.280;2023-02-28T01:13:14;11.40;;;6.57;;
23288;SDS011;11813;50.834;4.280;2023-02-28T01:15:41;8.80;;;6.30;;
23288;SDS011;11813;50.834;4.280;2023-02-28T01:18:13;10.40;;;6.60;;
23288;SDS011;11813;50.834;4.280;2023-02-28T01:20:39;9.73;;;6.83;;
23288;SDS011;11813;50.834;4.280;2023-02-28T01:23:05;11.93;;;7.00;;
23288;SDS011;11813;50.834;4.280;2023-02-28T01:25:30;8.57;;;6.30;;
23288;SDS011;11813;50.834;4.280;2023-02-28T01:27:58;9.57;;;6.77;;
23288;SDS011;11813;50.834;4.280;2023-02-28T01:30:24;12.63;;;7.07;;
23288;SDS011;11813;50.834;4.280;2023-02-28T01:32:49;13.73;;;7.63;;
23288;SDS011;11813;50.834;4.280;2023-02-28T01:35:18;15.00;;;7.10;;
23288;SDS011;11813;50.834;4.280;2023-02-28T01:37:44;12.57;;;6.77;;
23288;SDS011;11813;50.834;4.280;2023-02-28T01:40:09;11.97;;;7.20;;
23288;SDS011;11813;50.834;4.280;2023-02-28T01:42:36;9.63;;;6.80;;
23288;SDS011;11813;50.834;4.280;2023-02-28T01:47:39;12.23;;;7.27;;
23288;SDS011;11813;50.834;4.280;2023-02-28T01:50:09;11.57;;;7.33;;
23288;SDS011;11813;50.834;4.280;2023-02-28T01:52:41;13.13;;;6.83;;
23288;SDS011;11813;50.834;4.280;2023-02-28T01:55:08;11.40;;;7.23;;
23288;SDS011;11813;50.834;4.280;2023-02-28T01:57:37;12.67;;;6.50;;
23288;SDS011;11813;50.834;4.280;2023-02-28T02:00:10;15.10;;;8.03;;
23288;SDS011;11813;50.834;4.280;2023-02-28T02:02:42;14.50;;;7.80;;
23288;SDS011;11813;50.834;4.280;2023-02-28T02:05:19;11.10;;;6.93;;
23288;SDS011;11813;50.834;4.280;2023-02-28T02:07:47;13.37;;;8.00;;
23288;SDS011;11813;50.834;4.280;2023-02-28T02:19:33;12.70;;;7.53;;
23288;SDS011;11813;50.834;4.280;2023-02-28T02:41:28;12.83;;;8.53;;
23288;SDS011;11813;50.834;4.280;2023-02-28T02:47:02;15.17;;;8.40;;
23288;SDS011;11813;50.834;4.280;2023-02-28T02:49:35;10.83;;;7.73;;
23288;SDS011;11813;50.834;4.280;2023-02-28T02:52:04;17.80;;;8.60;;
23288;SDS011;11813;50.834;4.280;2023-02-28T02:54:36;16.07;;;9.07;;
23288;SDS011;11813;50.834;4.280;2023-02-28T02:57:07;16.77;;;8.73;;
23288;SDS011;11813;50.834;4.280;2023-02-28T02:59:38;15.43;;;9.63;;
23288;SDS011;11813;50.834;4.280;2023-02-28T03:02:06;12.77;;;8.33;;
23288;SDS011;11813;50.834;4.280;2023-02-28T03:04:36;13.50;;;8.87;;
23288;SDS011;11813;50.834;4.280;2023-02-28T03:07:07;12.27;;;8.67;;
23288;SDS011;11813;50.834;4.280;2023-02-28T03:09:33;14.87;;;8.93;;
23288;SDS011;11813;50.834;4.280;2023-02-28T03:12:00;13.33;;;8.33;;
23288;SDS011;11813;50.834;4.280;2023-02-28T03:14:30;11.87;;;8.37;;
23288;SDS011;11813;50.834;4.280;2023-02-28T03:22:52;15.87;;;8.60;;
23288;SDS011;11813;50.834;4.280;2023-02-28T03:31:07;17.93;;;9.57;;
23288;SDS011;11813;50.834;4.280;2023-02-28T03:33:45;14.90;;;9.60;;
23288;SDS011;11813;50.834;4.280;2023-02-28T03:36:20;14.07;;;9.00;;
23288;SDS011;11813;50.834;4.280;2023-02-28T03:41:22;15.53;;;9.87;;
23288;SDS011;11813;50.834;4.280;2023-02-28T03:43:53;17.40;;;10.30;;
23288;SDS011;11813;50.834;4.280;2023-02-28T03:46:24;19.60;;;10.00;;
23288;SDS011;11813;50.834;4.280;2023-02-28T03:48:56;16.37;;;9.83;;
23288;SDS011;11813;50.834;4.280;2023-02-28T03:51:27;15.50;;;10.00;;
23288;SDS011;11813;50.834;4.280;2023-02-28T03:53:56;13.07;;;9.33;;
23288;SDS011;11813;50.834;4.280;2023-02-28T03:56:27;17.27;;;9.00;;
23288;SDS011;11813;50.834;4.280;2023-02-28T03:59:06;16.87;;;9.80;;
23288;SDS011;11813;50.834;4.280;2023-02-28T04:01:43;16.77;;;9.17;;
23288;SDS011;11813;50.834;4.280;2023-02-28T04:04:10;14.53;;;8.67;;
23288;SDS011;11813;50.834;4.280;2023-02-28T04:06:37;16.47;;;9.60;;
23288;SDS011;11813;50.834;4.280;2023-02-28T04:09:04;15.40;;;10.43;;
23288;SDS011;11813;50.834;4.280;2023-02-28T04:11:35;18.23;;;10.70;;
23288;SDS011;11813;50.834;4.280;2023-02-28T04:14:02;17.43;;;9.43;;
23288;SDS011;11813;50.834;4.280;2023-02-28T04:16:32;16.80;;;9.77;;
23288;SDS011;11813;50.834;4.280;2023-02-28T04:18:59;15.73;;;9.50;;
23288;SDS011;11813;50.834;4.280;2023-02-28T04:21:37;14.20;;;9.57;;
23288;SDS011;11813;50.834;4.280;2023-02-28T04:24:05;19.80;;;10.37;;
23288;SDS011;11813;50.834;4.280;2023-02-28T04:26:32;19.57;;;10.33;;
23288;SDS011;11813;50.834;4.280;2023-02-28T04:28:59;18.13;;;10.00;;
23288;SDS011;11813;50.834;4.280;2023-02-28T04:31:26;15.47;;;9.70;;
23288;SDS011;11813;50.834;4.280;2023-02-28T04:33:52;16.13;;;9.93;;
23288;SDS011;11813;50.834;4.280;2023-02-28T04:36:17;19.67;;;10.13;;
23288;SDS011;11813;50.834;4.280;2023-02-28T04:38:43;15.40;;;9.70;;
23288;SDS011;11813;50.834;4.280;2023-02-28T04:41:10;17.57;;;10.60;;
23288;SDS011;11813;50.834;4.280;2023-02-28T04:43:36;18.90;;;11.10;;
23288;SDS011;11813;50.834;4.280;2023-02-28T04:46:03;17.77;;;10.10;;
23288;SDS011;11813;50.834;4.280;2023-02-28T04:48:30;18.43;;;10.30;;
23288;SDS011;11813;50.834;4.280;2023-02-28T04:51:02;20.67;;;10.90;;
23288;SDS011;11813;50.834;4.280;2023-02-28T04:53:35;18.70;;;11.63;;
23288;SDS011;11813;50.834;4.280;2023-02-28T04:56:02;27.77;;;10.33;;
23288;SDS011;11813;50.834;4.280;2023-02-28T04:58:28;15.40;;;10.80;;
23288;SDS011;11813;50.834;4.280;2023-02-28T05:00:56;15.37;;;10.20;;
23288;SDS011;11813;50.834;4.280;2023-02-28T05:03:27;20.23;;;10.50;;
23288;SDS011;11813;50.834;4.280;2023-02-28T05:05:53;16.00;;;10.30;;
23288;SDS011;11813;50.834;4.280;2023-02-28T05:08:18;15.07;;;10.30;;
23288;SDS011;11813;50.834;4.280;2023-02-28T05:10:44;16.93;;;11.10;;
23288;SDS011;11813;50.834;4.280;2023-02-28T05:13:12;21.23;;;10.67;;
23288;SDS011;11813;50.834;4.280;2023-02-28T05:15:38;17.80;;;11.70;;
23288;SDS011;11813;50.834;4.280;2023-02-28T05:18:04;18.53;;;11.47;;
23288;SDS011;11813;50.834;4.280;2023-02-28T05:20:29;17.00;;;11.37;;
23288;SDS011;11813;50.834;4.280;2023-02-28T05:22:55;17.20;;;10.73;;
23288;SDS011;11813;50.834;4.280;2023-02-28T05:25:23;18.90;;;10.70;;
23288;SDS011;11813;50.834;4.280;2023-02-28T05:27:48;22.77;;;10.80;;
23288;SDS011;11813;50.834;4.280;2023-02-28T05:30:14;19.00;;;10.67;;
23288;SDS011;11813;50.834;4.280;2023-02-28T05:32:40;18.97;;;10.37;;
23288;SDS011;11813;50.834;4.280;2023-02-28T05:35:12;14.97;;;10.43;;
23288;SDS011;11813;50.834;4.280;2023-02-28T05:37:38;18.00;;;11.43;;
23288;SDS011;11813;50.834;4.280;2023-02-28T05:40:05;16.30;;;10.07;;
23288;SDS011;11813;50.834;4.280;2023-02-28T05:42:32;18.13;;;11.10;;
23288;SDS011;11813;50.834;4.280;2023-02-28T05:44:57;19.73;;;11.50;;
23288;SDS011;11813;50.834;4.280;2023-02-28T05:47:23;17.60;;;11.27;;
23288;SDS011;11813;50.834;4.280;2023-02-28T05:49:49;21.53;;;10.20;;
23288;SDS011;11813;50.834;4.280;2023-02-28T05:52:16;19.27;;;11.37;;
23288;SDS011;11813;50.834;4.280;2023-02-28T05:54:41;19.93;;;10.40;;
23288;SDS011;11813;50.834;4.280;2023-02-28T05:57:07;15.90;;;10.73;;
23288;SDS011;11813;50.834;4.280;2023-02-28T05:59:32;21.53;;;10.83;;
23288;SDS011;11813;50.834;4.280;2023-02-28T06:01:58;19.77;;;11.00;;
23288;SDS011;11813;50.834;4.280;2023-02-28T06:04:24;23.43;;;11.50;;
23288;SDS011;11813;50.834;4.280;2023-02-28T06:06:49;20.13;;;11.17;;
23288;SDS011;11813;50.834;4.280;2023-02-28T06:09:16;16.50;;;10.80;;
23288;SDS011;11813;50.834;4.280;2023-02-28T06:11:42;24.23;;;11.40;;
23288;SDS011;11813;50.834;4.280;2023-02-28T06:14:12;21.93;;;10.83;;
23288;SDS011;11813;50.834;4.280;2023-02-28T06:16:41;20.93;;;11.73;;
23288;SDS011;11813;50.834;4.280;2023-02-28T06:19:06;18.90;;;11.00;;
23288;SDS011;11813;50.834;4.280;2023-02-28T06:21:32;17.17;;;10.40;;
23288;SDS011;11813;50.834;4.280;2023-02-28T06:23:57;18.33;;;10.33;;
23288;SDS011;11813;50.834;4.280;2023-02-28T06:26:24;19.30;;;9.73;;
23288;SDS011;11813;50.834;4.280;2023-02-28T06:28:50;25.23;;;10.70;;
23288;SDS011;11813;50.834;4.280;2023-02-28T06:31:16;17.50;;;9.70;;
23288;SDS011;11813;50.834;4.280;2023-02-28T06:33:43;18.87;;;10.47;;
23288;SDS011;11813;50.834;4.280;2023-02-28T06:36:10;17.07;;;11.57;;
23288;SDS011;11813;50.834;4.280;2023-02-28T06:38:37;18.50;;;11.43;;
23288;SDS011;11813;50.834;4.280;2023-02-28T06:41:03;17.33;;;11.27;;
23288;SDS011;11813;50.834;4.280;2023-02-28T06:43:31;16.83;;;9.97;;
23288;SDS011;11813;50.834;4.280;2023-02-28T06:45:59;18.60;;;10.40;;
23288;SDS011;11813;50.834;4.280;2023-02-28T06:48:26;16.80;;;9.63;;
23288;SDS011;11813;50.834;4.280;2023-02-28T06:50:52;16.33;;;10.23;;
23288;SDS011;11813;50.834;4.280;2023-02-28T06:53:25;17.00;;;10.73;;
23288;SDS011;11813;50.834;4.280;2023-02-28T06:55:51;15.80;;;9.43;;
23288;SDS011;11813;50.834;4.280;2023-02-28T06:58:16;17.40;;;10.47;;
23288;SDS011;11813;50.834;4.280;2023-02-28T07:00:45;15.20;;;10.00;;
23288;SDS011;11813;50.834;4.280;2023-02-28T07:03:15;17.23;;;9.80;;
23288;SDS011;11813;50.834;4.280;2023-02-28T07:05:41;15.10;;;9.50;;
23288;SDS011;11813;50.834;4.280;2023-02-28T07:08:06;13.20;;;9.43;;
23288;SDS011;11813;50.834;4.280;2023-02-28T07:10:33;17.70;;;9.77;;
23288;SDS011;11813;50.834;4.280;2023-02-28T07:12:59;14.10;;;9.33;;
23288;SDS011;11813;50.834;4.280;2023-02-28T07:15:25;17.73;;;10.10;;
23288;SDS011;11813;50.834;4.280;2023-02-28T07:17:51;16.47;;;9.70;;
23288;SDS011;11813;50.834;4.280;2023-02-28T07:20:16;15.23;;;10.23;;
23288;SDS011;11813;50.834;4.280;2023-02-28T07:22:42;20.37;;;10.47;;
23288;SDS011;11813;50.834;4.280;2023-02-28T07:25:08;21.27;;;10.03;;
23288;SDS011;11813;50.834;4.280;2023-02-28T07:27:34;19.73;;;9.33;;
23288;SDS011;11813;50.834;4.280;2023-02-28T07:29:59;16.47;;;10.13;;
23288;SDS011;11813;50.834;4.280;2023-02-28T07:32:28;18.70;;;10.07;;
23288;SDS011;11813;50.834;4.280;2023-02-28T07:34:54;20.67;;;10.07;;
23288;SDS011;11813;50.834;4.280;2023-02-28T07:37:20;14.37;;;9.47;;
23288;SDS011;11813;50.834;4.280;2023-02-28T07:39:46;14.30;;;8.80;;
23288;SDS011;11813;50.834;4.280;2023-02-28T07:42:11;16.27;;;9.40;;
23288;SDS011;11813;50.834;4.280;2023-02-28T07:44:40;12.87;;;9.37;;
23288;SDS011;11813;50.834;4.280;2023-02-28T07:47:10;12.80;;;8.43;;
23288;SDS011;11813;50.834;4.280;2023-02-28T07:49:36;15.17;;;9.17;;
23288;SDS011;11813;50.834;4.280;2023-02-28T07:52:03;15.53;;;8.70;;
23288;SDS011;11813;50.834;4.280;2023-02-28T07:54:30;17.63;;;9.57;;
23288;SDS011;11813;50.834;4.280;2023-02-28T07:56:55;13.77;;;8.83;;
23288;SDS011;11813;50.834;4.280;2023-02-28T07:59:21;14.20;;;8.80;;
23288;SDS011;11813;50.834;4.280;2023-02-28T08:01:46;16.47;;;8.67;;
23288;SDS011;11813;50.834;4.280;2023-02-28T08:04:15;12.27;;;7.97;;
23288;SDS011;11813;50.834;4.280;2023-02-28T08:06:41;14.40;;;7.83;;
23288;SDS011;11813;50.834;4.280;2023-02-28T08:09:07;14.70;;;8.30;;
23288;SDS011;11813;50.834;4.280;2023-02-28T08:11:32;11.33;;;6.70;;
23288;SDS011;11813;50.834;4.280;2023-02-28T08:13:58;16.30;;;7.80;;
23288;SDS011;11813;50.834;4.280;2023-02-28T08:16:23;11.20;;;7.77;;
23288;SDS011;11813;50.834;4.280;2023-02-28T08:18:50;17.33;;;7.93;;
23288;SDS011;11813;50.834;4.280;2023-02-28T08:21:16;9.60;;;6.37;;
23288;SDS011;11813;50.834;4.280;2023-02-28T08:23:42;10.70;;;5.67;;
23288;SDS011;11813;50.834;4.280;2023-02-28T08:26:08;8.77;;;5.37;;
23288;SDS011;11813;50.834;4.280;2023-02-28T08:28:34;9.00;;;5.53;;
23288;SDS011;11813;50.834;4.280;2023-02-28T08:30:59;8.40;;;5.27;;
23288;SDS011;11813;50.834;4.280;2023-02-28T08:33:25;10.63;;;5.47;;
23288;SDS011;11813;50.834;4.280;2023-02-28T08:35:53;5.87;;;4.77;;
23288;SDS011;11813;50.834;4.280;2023-02-28T08:38:22;14.07;;;5.00;;
23288;SDS011;11813;50.834;4.280;2023-02-28T08:40:48;6.63;;;4.80;;
23288;SDS011;11813;50.834;4.280;2023-02-28T08:43:14;17.47;;;4.80;;
23288;SDS011;11813;50.834;4.280;2023-02-28T08:45:39;8.67;;;4.80;;
23288;SDS011;11813;50.834;4.280;2023-02-28T08:48:05;6.47;;;4.60;;
23288;SDS011;11813;50.834;4.280;2023-02-28T08:50:31;7.73;;;4.50;;
23288;SDS011;11813;50.834;4.280;2023-02-28T08:52:56;7.03;;;4.50;;
23288;SDS011;11813;50.834;4.280;2023-02-28T08:55:22;8.30;;;4.73;;
23288;SDS011;11813;50.834;4.280;2023-02-28T08:57:47;6.70;;;4.50;;
23288;SDS011;11813;50.834;4.280;2023-02-28T09:00:13;6.30;;;3.63;;
23288;SDS011;11813;50.834;4.280;2023-02-28T09:02:39;7.87;;;4.10;;
23288;SDS011;11813;50.834;4.280;2023-02-28T09:05:07;7.20;;;4.30;;
23288;SDS011;11813;50.834;4.280;2023-02-28T09:07:33;7.80;;;3.57;;
23288;SDS011;11813;50.834;4.280;2023-02-28T09:09:59;6.23;;;4.17;;
23288;SDS011;11813;50.834;4.280;2023-02-28T09:12:25;8.03;;;4.27;;
23288;SDS011;11813;50.834;4.280;2023-02-28T09:14:52;7.50;;;4.13;;
23288;SDS011;11813;50.834;4.280;2023-02-28T09:17:18;8.53;;;4.60;;
23288;SDS011;11813;50.834;4.280;2023-02-28T09:19:44;10.67;;;4.43;;
23288;SDS011;11813;50.834;4.280;2023-02-28T09:22:12;5.27;;;4.53;;
23288;SDS011;11813;50.834;4.280;2023-02-28T09:24:37;5.80;;;4.13;;
23288;SDS011;11813;50.834;4.280;2023-02-28T09:27:03;7.33;;;4.50;;
23288;SDS011;11813;50.834;4.280;2023-02-28T09:29:30;10.10;;;4.60;;
23288;SDS011;11813;50.834;4.280;2023-02-28T09:31:58;13.40;;;4.37;;
23288;SDS011;11813;50.834;4.280;2023-02-28T09:34:24;6.07;;;4.40;;
23288;SDS011;11813;50.834;4.280;2023-02-28T09:36:51;16.57;;;4.20;;
23288;SDS011;11813;50.834;4.280;2023-02-28T09:39:19;10.03;;;3.73;;
23288;SDS011;11813;50.834;4.280;2023-02-28T09:41:47;4.60;;;3.60;;
23288;SDS011;11813;50.834;4.280;2023-02-28T09:44:37;5.33;;;3.20;;
23288;SDS011;11813;50.834;4.280;2023-02-28T09:49:47;8.57;;;3.50;;
23288;SDS011;11813;50.834;4.280;2023-02-28T09:52:15;6.53;;;4.03;;
23288;SDS011;11813;50.834;4.280;2023-02-28T09:54:44;3.77;;;2.97;;
23288;SDS011;11813;50.834;4.280;2023-02-28T10:02:41;4.10;;;3.20;;
23288;SDS011;11813;50.834;4.280;2023-02-28T10:05:35;4.07;;;3.20;;
23288;SDS011;11813;50.834;4.280;2023-02-28T10:08:14;5.00;;;3.67;;
23288;SDS011;11813;50.834;4.280;2023-02-28T10:10:51;4.83;;;3.60;;
23288;SDS011;11813;50.834;4.280;2023-02-28T10:13:28;3.90;;;3.00;;
23288;SDS011;11813;50.834;4.280;2023-02-28T10:16:08;23.17;;;2.80;;
23288;SDS011;11813;50.834;4.280;2023-02-28T10:18:42;9.80;;;3.10;;
23288;SDS011;11813;50.834;4.280;2023-02-28T10:21:23;4.43;;;2.83;;
23288;SDS011;11813;50.834;4.280;2023-02-28T10:23:57;5.03;;;3.10;;
23288;SDS011;11813;50.834;4.280;2023-02-28T10:26:28;3.40;;;3.00;;
23288;SDS011;11813;50.834;4.280;2023-02-28T10:28:57;7.53;;;3.83;;
23288;SDS011;11813;50.834;4.280;2023-02-28T10:31:22;7.67;;;4.03;;
23288;SDS011;11813;50.834;4.280;2023-02-28T10:33:48;3.43;;;3.13;;
23288;SDS011;11813;50.834;4.280;2023-02-28T10:36:15;3.03;;;2.73;;
23288;SDS011;11813;50.834;4.280;2023-02-28T10:38:42;4.87;;;2.90;;
23288;SDS011;11813;50.834;4.280;2023-02-28T10:43:37;6.00;;;2.87;;
23288;SDS011;11813;50.834;4.280;2023-02-28T10:46:09;4.83;;;3.53;;
23288;SDS011;11813;50.834;4.280;2023-02-28T10:48:37;5.57;;;3.60;;
23288;SDS011;11813;50.834;4.280;2023-02-28T10:51:14;6.10;;;2.97;;
23288;SDS011;11813;50.834;4.280;2023-02-28T10:53:51;3.40;;;2.60;;
23288;SDS011;11813;50.834;4.280;2023-02-28T10:56:18;3.07;;;2.53;;
23288;SDS011;11813;50.834;4.280;2023-02-28T11:01:42;4.93;;;2.43;;
23288;SDS011;11813;50.834;4.280;2023-02-28T11:07:04;2.77;;;2.47;;
23288;SDS011;11813;50.834;4.280;2023-02-28T11:09:34;8.10;;;3.13;;
23288;SDS011;11813;50.834;4.280;2023-02-28T11:12:06;3.50;;;2.67;;
23288;SDS011;11813;50.834;4.280;2023-02-28T11:14:35;6.97;;;2.70;;
23288;SDS011;11813;50.834;4.280;2023-02-28T11:17:23;3.10;;;2.80;;
23288;SDS011;11813;50.834;4.280;2023-02-28T11:19:52;3.33;;;2.70;;
23288;SDS011;11813;50.834;4.280;2023-02-28T11:22:21;4.87;;;3.20;;
23288;SDS011;11813;50.834;4.280;2023-02-28T11:24:53;4.60;;;3.07;;
23288;SDS011;11813;50.834;4.280;2023-02-28T11:27:26;4.00;;;3.07;;
23288;SDS011;11813;50.834;4.280;2023-02-28T11:35:51;5.93;;;3.10;;
23288;SDS011;11813;50.834;4.280;2023-02-28T11:38:18;4.40;;;3.20;;
23288;SDS011;11813;50.834;4.280;2023-02-28T11:44:04;4.97;;;2.70;;
23288;SDS011;11813;50.834;4.280;2023-02-28T11:49:12;4.10;;;3.10;;
23288;SDS011;11813;50.834;4.280;2023-02-28T11:52:01;9.30;;;3.53;;
23288;SDS011;11813;50.834;4.280;2023-02-28T11:54:54;7.23;;;3.43;;
23288;SDS011;11813;50.834;4.280;2023-02-28T12:00:32;4.60;;;2.87;;
23288;SDS011;11813;50.834;4.280;2023-02-28T12:08:21;4.67;;;2.90;;
23288;SDS011;11813;50.834;4.280;2023-02-28T12:22:49;5.37;;;3.20;;
23288;SDS011;11813;50.834;4.280;2023-02-28T12:24:55;3.73;;;3.23;;
23288;SDS011;11813;50.834;4.280;2023-02-28T12:27:25;4.80;;;2.90;;
23288;SDS011;11813;50.834;4.280;2023-02-28T12:30:04;5.00;;;3.40;;
23288;SDS011;11813;50.834;4.280;2023-02-28T12:32:41;5.27;;;3.13;;
23288;SDS011;11813;50.834;4.280;2023-02-28T12:40:11;4.83;;;3.20;;
23288;SDS011;11813;50.834;4.280;2023-02-28T12:42:50;6.40;;;2.67;;
23288;SDS011;11813;50.834;4.280;2023-02-28T12:47:48;4.17;;;3.07;;
23288;SDS011;11813;50.834;4.280;2023-02-28T12:50:21;7.00;;;3.20;;
23288;SDS011;11813;50.834;4.280;2023-02-28T12:58:33;6.23;;;3.20;;
23288;SDS011;11813;50.834;4.280;2023-02-28T13:09:12;4.00;;;3.57;;
23288;SDS011;11813;50.834;4.280;2023-02-28T13:22:43;3.70;;;3.03;;
23288;SDS011;11813;50.834;4.280;2023-02-28T13:27:46;4.23;;;2.73;;
23288;SDS011;11813;50.834;4.280;2023-02-28T13:33:22;5.67;;;3.20;;
23288;SDS011;11813;50.834;4.280;2023-02-28T13:36:00;3.37;;;3.00;;
23288;SDS011;11813;50.834;4.280;2023-02-28T13:38:35;6.60;;;3.37;;
23288;SDS011;11813;50.834;4.280;2023-02-28T13:47:27;5.37;;;3.00;;
23288;SDS011;11813;50.834;4.280;2023-02-28T13:49:27;5.50;;;3.30;;
23288;SDS011;11813;50.834;4.280;2023-02-28T13:52:07;5.30;;;3.27;;
23288;SDS011;11813;50.834;4.280;2023-02-28T14:03:45;3.83;;;2.83;;
23288;SDS011;11813;50.834;4.280;2023-02-28T14:06:32;3.47;;;3.00;;
23288;SDS011;11813;50.834;4.280;2023-02-28T14:09:01;4.27;;;3.20;;
23288;SDS011;11813;50.834;4.280;2023-02-28T14:11:34;3.63;;;3.20;;
23288;SDS011;11813;50.834;4.280;2023-02-28T14:14:01;5.20;;;3.40;;
23288;SDS011;11813;50.834;4.280;2023-02-28T14:16:35;4.43;;;3.13;;
23288;SDS011;11813;50.834;4.280;2023-02-28T14:19:17;3.80;;;3.07;;
23288;SDS011;11813;50.834;4.280;2023-02-28T14:32:35;5.53;;;3.43;;
23288;SDS011;11813;50.834;4.280;2023-02-28T14:37:37;4.83;;;3.73;;
23288;SDS011;11813;50.834;4.280;2023-02-28T14:40:11;7.87;;;3.67;;
23288;SDS011;11813;50.834;4.280;2023-02-28T14:42:46;11.70;;;3.43;;
23288;SDS011;11813;50.834;4.280;2023-02-28T14:45:20;3.87;;;2.77;;
23288;SDS011;11813;50.834;4.280;2023-02-28T14:47:47;4.50;;;3.20;;
23288;SDS011;11813;50.834;4.280;2023-02-28T14:50:22;7.00;;;3.10;;
23288;SDS011;11813;50.834;4.280;2023-02-28T14:52:55;5.47;;;3.30;;
23288;SDS011;11813;50.834;4.280;2023-02-28T14:55:26;3.90;;;3.20;;
23288;SDS011;11813;50.834;4.280;2023-02-28T14:57:55;5.47;;;3.27;;
23288;SDS011;11813;50.834;4.280;2023-02-28T15:00:30;4.70;;;3.23;;
23288;SDS011;11813;50.834;4.280;2023-02-28T15:03:17;3.70;;;3.00;;
23288;SDS011;11813;50.834;4.280;2023-02-28T15:05:52;3.50;;;3.20;;
23288;SDS011;11813;50.834;4.280;2023-02-28T15:08:23;5.23;;;3.60;;
23288;SDS011;11813;50.834;4.280;2023-02-28T15:10:53;6.90;;;3.40;;
23288;SDS011;11813;50.834;4.280;2023-02-28T15:13:53;3.80;;;3.40;;
23288;SDS011;11813;50.834;4.280;2023-02-28T15:16:25;4.37;;;3.43;;
23288;SDS011;11813;50.834;4.280;2023-02-28T15:18:59;4.70;;;3.60;;
23288;SDS011;11813;50.834;4.280;2023-02-28T15:21:36;3.53;;;3.07;;
23288;SDS011;11813;50.834;4.280;2023-02-28T15:26:39;4.10;;;3.70;;
23288;SDS011;11813;50.834;4.280;2023-02-28T15:29:17;6.10;;;3.80;;
23288;SDS011;11813;50.834;4.280;2023-02-28T15:31:47;5.17;;;3.97;;
23288;SDS011;11813;50.834;4.280;2023-02-28T15:34:20;5.20;;;3.70;;
23288;SDS011;11813;50.834;4.280;2023-02-28T15:37:00;5.50;;;4.00;;
23288;SDS011;11813;50.834;4.280;2023-02-28T15:39:27;5.70;;;3.90;;
23288;SDS011;11813;50.834;4.280;2023-02-28T15:42:10;6.47;;;4.13;;
23288;SDS011;11813;50.834;4.280;2023-02-28T15:44:46;4.97;;;4.47;;
23288;SDS011;11813;50.834;4.280;2023-02-28T15:47:21;4.97;;;4.07;;
23288;SDS011;11813;50.834;4.280;2023-02-28T15:49:52;8.13;;;3.87;;
23288;SDS011;11813;50.834;4.280;2023-02-28T15:52:22;6.23;;;4.40;;
23288;SDS011;11813;50.834;4.280;2023-02-28T15:54:53;6.73;;;4.03;;
23288;SDS011;11813;50.834;4.280;2023-02-28T15:57:20;5.33;;;4.10;;
23288;SDS011;11813;50.834;4.280;2023-02-28T15:59:55;8.93;;;4.30;;
23288;SDS011;11813;50.834;4.280;2023-02-28T16:07:21;6.37;;;4.00;;
23288;SDS011;11813;50.834;4.280;2023-02-28T16:09:47;6.37;;;4.13;;
23288;SDS011;11813;50.834;4.280;2023-02-28T16:12:13;5.40;;;3.67;;
23288;SDS011;11813;50.834;4.280;2023-02-28T16:14:39;4.27;;;3.63;;
23288;SDS011;11813;50.834;4.280;2023-02-28T16:17:14;9.77;;;3.70;;
23288;SDS011;11813;50.834;4.280;2023-02-28T16:19:48;4.50;;;3.60;;
23288;SDS011;11813;50.834;4.280;2023-02-28T16:22:14;6.33;;;3.77;;
23288;SDS011;11813;50.834;4.280;2023-02-28T16:24:39;5.77;;;4.13;;
23288;SDS011;11813;50.834;4.280;2023-02-28T16:27:05;6.03;;;4.30;;
23288;SDS011;11813;50.834;4.280;2023-02-28T16:29:32;4.67;;;4.00;;
23288;SDS011;11813;50.834;4.280;2023-02-28T16:32:01;7.63;;;3.90;;
23288;SDS011;11813;50.834;4.280;2023-02-28T16:34:29;5.80;;;4.33;;
23288;SDS011;11813;50.834;4.280;2023-02-28T16:36:55;5.77;;;3.83;;
23288;SDS011;11813;50.834;4.280;2023-02-28T16:39:21;6.37;;;3.83;;
23288;SDS011;11813;50.834;4.280;2023-02-28T16:41:46;8.67;;;5.30;;
23288;SDS011;11813;50.834;4.280;2023-02-28T16:44:20;5.57;;;4.07;;
23288;SDS011;11813;50.834;4.280;2023-02-28T16:46:52;7.63;;;3.90;;
23288;SDS011;11813;50.834;4.280;2023-02-28T16:49:18;6.77;;;4.00;;
23288;SDS011;11813;50.834;4.280;2023-02-28T16:51:43;5.80;;;4.30;;
23288;SDS011;11813;50.834;4.280;2023-02-28T16:54:09;5.37;;;3.77;;
23288;SDS011;11813;50.834;4.280;2023-02-28T16:56:34;4.10;;;3.43;;
23288;SDS011;11813;50.834;4.280;2023-02-28T16:59:00;5.43;;;3.87;;
23288;SDS011;11813;50.834;4.280;2023-02-28T17:01:26;6.67;;;3.60;;
23288;SDS011;11813;50.834;4.280;2023-02-28T17:03:54;4.93;;;4.00;;
23288;SDS011;11813;50.834;4.280;2023-02-28T17:06:20;7.27;;;4.07;;
23288;SDS011;11813;50.834;4.280;2023-02-28T17:08:49;5.23;;;3.70;;
23288;SDS011;11813;50.834;4.280;2023-02-28T17:11:15;10.50;;;3.67;;
23288;SDS011;11813;50.834;4.280;2023-02-28T17:13:42;6.07;;;4.23;;
23288;SDS011;11813;50.834;4.280;2023-02-28T17:16:17;5.53;;;3.70;;
23288;SDS011;11813;50.834;4.280;2023-02-28T17:18:50;5.97;;;3.73;;
23288;SDS011;11813;50.834;4.280;2023-02-28T17:21:16;4.50;;;4.10;;
23288;SDS011;11813;50.834;4.280;2023-02-28T17:23:42;5.53;;;3.70;;
23288;SDS011;11813;50.834;4.280;2023-02-28T17:26:11;7.77;;;4.00;;
23288;SDS011;11813;50.834;4.280;2023-02-28T17:28:42;7.30;;;4.20;;
23288;SDS011;11813;50.834;4.280;2023-02-28T17:31:08;7.57;;;4.30;;
23288;SDS011;11813;50.834;4.280;2023-02-28T17:33:34;7.67;;;4.23;;
23288;SDS011;11813;50.834;4.280;2023-02-28T17:36:00;5.83;;;4.27;;
23288;SDS011;11813;50.834;4.280;2023-02-28T17:38:26;6.23;;;3.43;;